Time;durP1;ratioP1;P1;durP2;ratioP2;P2;SDS_P1;SDS_P2;PMS_P1;PMS_P2;Temp;Humidity;BMP_temperature;BMP_pressure;BME280_temperature;BME280_humidity;BME280_pressure;Samples;Min_cycle;Max_cycle;Signal;HPM_P1;HPM_P2
2024/04/20 00:02:05;;;;;;;0.30;0.20;;;;;;;7.63;98.19;99907.19;5428428;26;20584;-49
2024/04/20 00:04:32;;;;;;;0.30;0.20;;;;;;;7.68;98.38;99906.22;5405228;26;20871;-49
2024/04/20 00:06:58;;;;;;;0.30;0.20;;;;;;;7.75;97.78;99906.91;5452925;26;20485;-49
2024/04/20 00:09:25;;;;;;;0.30;0.20;;;;;;;7.77;98.31;99907.75;5440418;26;20483;-49
2024/04/20 00:11:52;;;;;;;0.30;0.20;;;;;;;7.72;97.51;99905.22;5393401;26;20583;-49
2024/04/20 00:14:18;;;;;;;0.30;0.20;;;;;;;7.73;97.61;99912.25;5452765;26;20473;-50
2024/04/20 00:16:45;;;;;;;0.30;0.20;;;;;;;7.52;97.94;99903.91;5421014;26;20821;-49
2024/04/20 00:19:11;;;;;;;0.30;0.20;;;;;;;7.47;98.27;99905.81;5451121;26;21009;-50
2024/04/20 00:21:38;;;;;;;0.30;0.20;;;;;;;7.32;98.65;99907.03;5453003;26;20481;-48
2024/04/20 00:24:05;;;;;;;0.30;0.20;;;;;;;7.36;98.15;99909.56;5452764;26;20469;-48
2024/04/20 00:26:35;;;;;;;0.30;0.20;;;;;;;7.28;98.52;99911.50;5435719;26;20603;-49
2024/04/20 00:29:02;;;;;;;0.30;0.20;;;;;;;7.26;98.89;99912.41;5453455;26;20862;-48
2024/04/20 00:31:28;;;;;;;0.30;0.20;;;;;;;7.26;98.53;99923.84;5449629;26;20584;-48
2024/04/20 00:33:55;;;;;;;0.30;0.20;;;;;;;7.23;99.07;99917.78;5432765;26;20567;-49
2024/04/20 00:36:22;;;;;;;0.30;0.20;;;;;;;7.15;100.00;99912.66;5453007;26;21031;-48
2024/04/20 00:38:52;;;;;;;0.30;0.20;;;;;;;7.24;99.90;99919.50;5452834;26;20474;-48
2024/04/20 00:41:19;;;;;;;0.30;0.20;;;;;;;7.25;100.00;99916.84;5438038;26;20592;-47
2024/04/20 00:43:45;;;;;;;0.30;0.20;;;;;;;7.28;100.00;99921.22;5452558;26;20469;-48
2024/04/20 00:46:12;;;;;;;0.30;0.20;;;;;;;7.22;100.00;99926.63;5452722;26;20598;-49
2024/04/20 00:48:39;;;;;;;0.30;0.10;;;;;;;7.42;100.00;99935.00;5436984;26;20534;-48
2024/04/20 00:51:07;;;;;;;0.30;0.20;;;;;;;7.47;100.00;99932.25;5421598;26;20475;-48
2024/04/20 00:53:34;;;;;;;0.30;0.20;;;;;;;7.39;100.00;99930.63;5397942;26;20527;-49
2024/04/20 00:56:03;;;;;;;0.30;0.20;;;;;;;7.40;100.00;99942.06;5445758;26;20470;-48
2024/04/20 00:58:30;;;;;;;0.30;0.20;;;;;;;7.47;99.99;99937.53;5452312;26;20473;-49
2024/04/20 01:00:57;;;;;;;0.30;0.20;;;;;;;7.37;99.04;99943.00;5452047;26;20530;-49
2024/04/20 01:03:26;;;;;;;0.30;0.20;;;;;;;7.49;99.90;99944.53;5439624;26;20531;-49
2024/04/20 01:05:54;;;;;;;0.30;0.20;;;;;;;7.53;99.17;99942.69;5451710;26;20886;-50
2024/04/20 01:08:21;;;;;;;0.30;0.20;;;;;;;7.59;99.27;99934.63;5455554;26;20477;-49
2024/04/20 01:10:48;;;;;;;0.30;0.20;;;;;;;7.57;98.73;99941.72;5444354;26;20473;-49
2024/04/20 01:13:14;;;;;;;0.30;0.20;;;;;;;7.63;98.07;99931.88;5455313;26;20765;-49
2024/04/20 01:15:41;;;;;;;0.30;0.20;;;;;;;7.66;98.63;99944.16;5430913;26;20470;-49
2024/04/20 01:18:08;;;;;;;0.30;0.20;;;;;;;7.64;98.76;99943.31;5455348;26;20526;-49
2024/04/20 01:20:34;;;;;;;0.30;0.20;;;;;;;7.60;98.64;99952.25;5455163;26;20473;-49
2024/04/20 01:23:02;;;;;;;0.30;0.20;;;;;;;7.66;98.97;99955.59;5455143;26;20482;-49
2024/04/20 01:25:29;;;;;;;0.30;0.20;;;;;;;7.58;98.00;99956.69;5454863;26;20470;-48
2024/04/20 01:27:56;;;;;;;0.30;0.20;;;;;;;7.68;98.16;99964.41;5444493;26;20469;-48
2024/04/20 01:30:22;;;;;;;0.30;0.20;;;;;;;7.69;98.37;99962.63;5454967;26;20545;-50
2024/04/20 01:32:49;;;;;;;0.30;0.20;;;;;;;7.64;98.52;99967.13;5452807;26;20473;-48
2024/04/20 01:35:15;;;;;;;0.30;0.20;;;;;;;7.70;97.51;99965.25;5455298;26;20587;-49
2024/04/20 01:37:42;;;;;;;0.30;0.20;;;;;;;7.73;98.21;99965.16;5455514;26;20469;-48
2024/04/20 01:40:09;;;;;;;0.30;0.10;;;;;;;7.75;97.90;99969.53;5454908;26;20880;-48
2024/04/20 01:42:36;;;;;;;0.30;0.20;;;;;;;7.72;97.24;99971.34;5400101;26;20488;-48
2024/04/20 01:45:03;;;;;;;0.30;0.20;;;;;;;7.73;97.85;99970.44;5454157;26;20477;-49
2024/04/20 01:47:31;;;;;;;0.30;0.20;;;;;;;7.67;97.82;99965.28;5455797;26;20821;-50
2024/04/20 01:49:58;;;;;;;0.30;0.20;;;;;;;7.57;96.99;99970.81;5414445;26;20530;-48
2024/04/20 01:52:24;;;;;;;0.30;0.20;;;;;;;7.55;96.73;99980.56;5424253;26;20607;-48
2024/04/20 01:54:51;;;;;;;0.30;0.10;;;;;;;7.59;96.71;99984.88;5423020;26;20471;-50
2024/04/20 01:57:17;;;;;;;0.30;0.20;;;;;;;7.68;96.58;99990.84;5443727;26;20519;-50
2024/04/20 01:59:44;;;;;;;0.30;0.20;;;;;;;7.66;96.04;99991.78;5417285;26;20473;-49
2024/04/20 02:02:10;;;;;;;0.30;0.20;;;;;;;7.50;96.15;99996.50;5442308;26;20535;-49
2024/04/20 02:04:37;;;;;;;0.30;0.20;;;;;;;7.53;96.27;99999.09;5456093;26;20473;-48
2024/04/20 02:07:04;;;;;;;0.30;0.20;;;;;;;7.47;95.97;100004.53;5454984;26;20454;-48
2024/04/20 02:09:30;;;;;;;0.30;0.20;;;;;;;7.43;96.44;100013.44;5452988;26;21031;-50
2024/04/20 02:11:57;;;;;;;0.30;0.20;;;;;;;7.26;96.45;100023.44;5445557;26;20571;-48
2024/04/20 02:14:24;;;;;;;0.30;0.20;;;;;;;7.25;96.27;100019.94;5458310;26;20523;-48
2024/04/20 02:16:51;;;;;;;0.30;0.20;;;;;;;7.16;95.42;100021.91;5459989;26;20526;-49
2024/04/20 02:19:17;;;;;;;0.30;0.20;;;;;;;7.12;95.81;100021.94;5455013;26;20465;-48
2024/04/20 02:21:44;;;;;;;0.30;0.20;;;;;;;7.11;96.14;100035.19;5455361;26;20555;-48
2024/04/20 02:24:11;;;;;;;0.30;0.20;;;;;;;7.10;95.75;100033.44;5450892;26;20481;-48
2024/04/20 02:26:38;;;;;;;0.30;0.20;;;;;;;7.17;96.02;100036.84;5455008;26;20998;-48
2024/04/20 02:29:05;;;;;;;0.30;0.20;;;;;;;7.32;95.93;100031.28;5454784;26;20525;-49
2024/04/20 02:31:31;;;;;;;0.30;0.20;;;;;;;7.24;95.58;100044.63;5453673;26;20470;-48
2024/04/20 02:33:58;;;;;;;0.30;0.20;;;;;;;7.28;95.68;100054.25;5454457;26;20474;-48
2024/04/20 02:36:27;;;;;;;0.30;0.20;;;;;;;7.21;96.03;100057.91;5454109;26;20469;-48
2024/04/20 02:38:54;;;;;;;0.30;0.20;;;;;;;7.11;96.38;100065.13;5447277;26;21141;-48
2024/04/20 02:41:20;;;;;;;0.30;0.20;;;;;;;7.22;96.85;100067.56;5454407;26;20470;-49
2024/04/20 02:43:47;;;;;;;0.30;0.20;;;;;;;7.10;96.70;100067.78;5454509;26;20473;-48
2024/04/20 02:46:14;;;;;;;0.30;0.20;;;;;;;7.27;96.68;100068.38;5454044;26;20884;-48
2024/04/20 02:48:41;;;;;;;0.30;0.20;;;;;;;7.22;97.18;100072.88;5454254;26;20518;-48
2024/04/20 02:51:08;;;;;;;0.30;0.20;;;;;;;6.91;98.35;100083.13;5426752;26;20474;-48
2024/04/20 02:53:35;;;;;;;0.30;0.17;;;;;;;6.99;100.00;100089.16;5418723;26;20531;-48
2024/04/20 02:56:02;;;;;;;0.30;0.20;;;;;;;6.85;100.00;100088.47;5447967;26;20830;-48
2024/04/20 02:58:32;;;;;;;0.30;0.20;;;;;;;6.69;100.00;100090.50;5454463;26;20465;-48
2024/04/20 03:01:00;;;;;;;0.30;0.20;;;;;;;6.54;100.00;100090.75;5454366;26;20465;-48
2024/04/20 03:03:30;;;;;;;0.30;0.20;;;;;;;6.65;100.00;100094.09;5441204;26;20526;-48
2024/04/20 03:05:57;;;;;;;0.30;0.20;;;;;;;6.29;100.00;100090.25;5450833;26;20522;-48
2024/04/20 03:08:23;;;;;;;0.30;0.20;;;;;;;6.35;99.90;100097.22;5438922;26;20469;-48
2024/04/20 03:10:50;;;;;;;0.30;0.20;;;;;;;6.36;98.24;100096.31;5453966;26;20474;-48
2024/04/20 03:13:16;;;;;;;0.30;0.20;;;;;;;6.39;97.17;100091.00;5454128;26;20850;-48
2024/04/20 03:15:44;;;;;;;0.30;0.20;;;;;;;6.44;96.42;100099.69;5439218;26;21071;-48
2024/04/20 03:18:10;;;;;;;0.30;0.20;;;;;;;6.16;96.70;100097.47;5454459;26;20477;-48
2024/04/20 03:20:37;;;;;;;0.30;0.20;;;;;;;6.15;97.80;100095.72;5444832;26;20482;-48
2024/04/20 03:23:04;;;;;;;0.30;0.20;;;;;;;5.98;99.21;100108.25;5454708;26;20493;-48
2024/04/20 03:25:30;;;;;;;0.30;0.20;;;;;;;5.89;100.00;100108.34;5453235;26;20840;-48
2024/04/20 03:27:57;;;;;;;0.30;0.20;;;;;;;5.94;100.00;100117.13;5455817;26;20522;-48
2024/04/20 03:30:24;;;;;;;0.30;0.20;;;;;;;5.97;100.00;100125.00;5454211;26;20526;-48
2024/04/20 03:32:50;;;;;;;0.30;0.20;;;;;;;6.05;100.00;100117.88;5438864;26;20475;-48
2024/04/20 03:35:17;;;;;;;0.30;0.10;;;;;;;6.16;100.00;100126.47;5452314;26;20548;-49
2024/04/20 03:37:45;;;;;;;0.30;0.20;;;;;;;6.26;100.00;100126.38;5444555;26;20801;-49
2024/04/20 03:40:12;;;;;;;0.30;0.20;;;;;;;6.40;100.00;100132.31;5454175;26;20465;-48
2024/04/20 03:42:39;;;;;;;0.30;0.20;;;;;;;6.36;100.00;100139.44;5454559;26;20477;-48
2024/04/20 03:45:05;;;;;;;0.30;0.20;;;;;;;6.45;100.00;100144.59;5431298;26;20476;-49
2024/04/20 03:47:32;;;;;;;0.30;0.20;;;;;;;6.54;100.00;100152.34;5420352;26;20594;-48
2024/04/20 03:49:59;;;;;;;0.30;0.20;;;;;;;6.64;100.00;100144.31;5407423;26;20934;-48
2024/04/20 03:52:25;;;;;;;0.30;0.20;;;;;;;6.65;100.00;100154.84;5433146;26;20822;-48
2024/04/20 03:54:52;;;;;;;0.30;0.20;;;;;;;6.71;100.00;100157.38;5417423;26;20532;-48
2024/04/20 03:57:18;;;;;;;0.30;0.20;;;;;;;6.76;100.00;100160.84;5428879;26;20896;-49
2024/04/20 03:59:45;;;;;;;0.30;0.20;;;;;;;6.66;100.00;100153.94;5453097;26;21088;-48
2024/04/20 04:02:12;;;;;;;0.30;0.20;;;;;;;6.80;100.00;100157.25;5439788;26;20793;-48
2024/04/20 04:04:39;;;;;;;0.30;0.20;;;;;;;6.81;100.00;100164.28;5452958;26;20470;-48
2024/04/20 04:07:06;;;;;;;0.30;0.20;;;;;;;6.73;100.00;100165.31;5430154;26;20553;-48
2024/04/20 04:09:32;;;;;;;0.30;0.10;;;;;;;6.66;100.00;100169.78;5440262;26;20481;-48
2024/04/20 04:11:59;;;;;;;0.30;0.20;;;;;;;6.68;100.00;100175.06;5450984;26;20522;-48
2024/04/20 04:14:26;;;;;;;0.30;0.20;;;;;;;6.68;100.00;100172.41;5452813;26;20530;-47
2024/04/20 04:16:54;;;;;;;0.30;0.20;;;;;;;6.67;100.00;100170.66;5444179;26;20483;-48
2024/04/20 04:19:20;;;;;;;0.30;0.20;;;;;;;6.74;100.00;100188.19;5452912;26;20477;-48
2024/04/20 04:21:47;;;;;;;0.30;0.20;;;;;;;6.73;100.00;100186.44;5445847;26;20477;-48
2024/04/20 04:24:13;;;;;;;0.30;0.20;;;;;;;6.74;100.00;100194.34;5407719;26;20493;-48
2024/04/20 04:26:41;;;;;;;0.30;0.20;;;;;;;6.82;100.00;100195.09;5444397;26;20466;-48
2024/04/20 04:29:07;;;;;;;0.30;0.20;;;;;;;6.86;100.00;100208.28;5452632;26;20509;-48
2024/04/20 04:31:34;;;;;;;0.30;0.20;;;;;;;6.83;100.00;100212.69;5447947;26;20998;-48
2024/04/20 04:34:00;;;;;;;0.30;0.20;;;;;;;6.75;100.00;100222.50;5433184;26;20877;-48
2024/04/20 04:36:27;;;;;;;0.30;0.20;;;;;;;6.67;100.00;100226.13;5404064;26;21016;-48
2024/04/20 04:38:54;;;;;;;0.30;0.20;;;;;;;6.45;100.00;100226.44;5450375;26;20555;-49
2024/04/20 04:41:20;;;;;;;0.30;0.20;;;;;;;6.55;100.00;100224.53;5439999;26;20475;-47
2024/04/20 04:43:47;;;;;;;0.30;0.20;;;;;;;6.59;100.00;100228.88;5452710;26;20474;-47
2024/04/20 04:46:13;;;;;;;0.30;0.10;;;;;;;6.57;100.00;100229.78;5452395;26;21043;-48
2024/04/20 04:48:40;;;;;;;0.30;0.20;;;;;;;6.40;100.00;100230.88;5452836;26;21014;-48
2024/04/20 04:51:07;;;;;;;0.30;0.20;;;;;;;6.56;100.00;100238.59;5427601;26;20473;-49
2024/04/20 04:53:33;;;;;;;9.90;9.00;;;;;;;6.63;100.00;100240.28;5416430;26;20478;-47
2024/04/20 04:56:00;;;;;;;0.30;0.10;;;;;;;6.63;100.00;100242.91;5445028;26;20552;-48
2024/04/20 04:58:26;;;;;;;0.30;0.20;;;;;;;6.61;100.00;100252.63;5452140;26;20522;-48
2024/04/20 05:00:53;;;;;;;0.30;0.20;;;;;;;6.67;100.00;100248.13;5452000;26;20869;-47
2024/04/20 05:03:20;;;;;;;0.30;0.20;;;;;;;6.75;100.00;100251.56;5424449;26;20490;-47
2024/04/20 05:05:49;;;;;;;0.30;0.20;;;;;;;6.79;100.00;100249.72;5422720;26;20494;-48
2024/04/20 05:08:16;;;;;;;0.30;0.20;;;;;;;6.80;100.00;100256.75;5451976;26;20526;-48
2024/04/20 05:10:42;;;;;;;0.30;0.20;;;;;;;6.89;100.00;100266.34;5431909;26;20485;-47
2024/04/20 05:13:09;;;;;;;0.30;0.20;;;;;;;6.90;100.00;100265.44;5447263;26;21099;-47
2024/04/20 05:15:36;;;;;;;0.30;0.20;;;;;;;6.88;100.00;100265.47;5437976;26;20536;-46
2024/04/20 05:18:05;;;;;;;0.30;0.20;;;;;;;6.89;100.00;100268.97;5419267;26;20831;-49
2024/04/20 05:20:34;;;;;;;0.30;0.20;;;;;;;6.89;100.00;100274.28;5403413;26;20474;-47
2024/04/20 05:23:01;;;;;;;0.30;0.20;;;;;;;6.95;100.00;100279.44;5443847;26;20596;-48
2024/04/20 05:25:28;;;;;;;0.30;0.20;;;;;;;6.76;100.00;100279.72;5415461;26;21031;-47
2024/04/20 05:27:54;;;;;;;0.30;0.20;;;;;;;6.72;100.00;100280.66;5436803;26;20489;-47
2024/04/20 05:30:21;;;;;;;0.30;0.20;;;;;;;6.82;100.00;100290.19;5440607;26;20470;-47
2024/04/20 05:32:47;;;;;;;0.30;0.20;;;;;;;6.85;100.00;100286.63;5396204;26;20537;-47
2024/04/20 05:35:14;;;;;;;0.30;0.20;;;;;;;6.84;100.00;100293.66;5446178;26;20478;-48
2024/04/20 05:37:41;;;;;;;0.30;0.20;;;;;;;6.97;100.00;100291.75;5409106;26;20529;-47
2024/04/20 05:40:08;;;;;;;0.30;0.20;;;;;;;7.04;100.00;100300.47;5446913;26;20469;-46
2024/04/20 05:42:35;;;;;;;0.30;0.20;;;;;;;7.10;100.00;100305.66;5429189;26;20483;-47
2024/04/20 05:45:01;;;;;;;0.30;0.20;;;;;;;7.21;100.00;100309.03;5409745;26;20546;-47
2024/04/20 05:47:28;;;;;;;0.30;0.20;;;;;;;7.23;100.00;100309.00;5410296;26;21097;-47
2024/04/20 05:49:55;;;;;;;0.30;0.20;;;;;;;7.33;100.00;100314.13;5393367;26;20479;-46
2024/04/20 05:52:22;;;;;;;0.30;0.20;;;;;;;7.46;100.00;100306.91;5409313;26;20848;-49
2024/04/20 05:54:49;;;;;;;0.30;0.20;;;;;;;7.45;100.00;100317.50;5422847;26;20530;-47
2024/04/20 05:57:16;;;;;;;0.30;0.20;;;;;;;7.48;100.00;100322.72;5428950;26;20463;-47
2024/04/20 05:59:43;;;;;;;0.30;0.20;;;;;;;7.55;100.00;100324.41;5436874;26;20467;-48
2024/04/20 06:02:09;;;;;;;0.30;0.20;;;;;;;7.63;99.89;100326.00;5417131;26;20471;-47
2024/04/20 06:04:36;;;;;;;0.30;0.20;;;;;;;7.53;98.74;100334.97;5415119;26;21011;-47
2024/04/20 06:07:02;;;;;;;0.30;0.20;;;;;;;7.52;98.25;100341.16;5420814;26;20520;-48
2024/04/20 06:09:29;;;;;;;0.30;0.20;;;;;;;7.71;98.66;100334.69;5398351;26;20558;-47
2024/04/20 06:11:56;;;;;;;0.30;0.20;;;;;;;7.99;98.04;100340.41;5427589;26;20584;-47
2024/04/20 06:14:23;;;;;;;0.30;0.20;;;;;;;7.84;97.45;100345.97;5435963;26;20523;-47
2024/04/20 06:16:49;;;;;;;0.30;0.20;;;;;;;7.89;96.96;100348.53;5443517;26;20521;-47
2024/04/20 06:19:16;;;;;;;0.60;0.60;;;;;;;8.18;96.42;100348.88;5451611;26;20465;-47
2024/04/20 06:21:43;;;;;;;0.30;0.20;;;;;;;8.41;95.06;100350.28;5442554;26;20852;-48
2024/04/20 06:24:12;;;;;;;0.30;0.20;;;;;;;8.43;94.72;100357.28;5424950;26;20899;-47
2024/04/20 06:26:39;;;;;;;0.30;0.20;;;;;;;8.47;94.30;100358.09;5420172;26;20895;-47
2024/04/20 06:29:06;;;;;;;0.30;0.20;;;;;;;8.41;94.92;100358.22;5423525;26;20474;-47
2024/04/20 06:31:33;;;;;;;0.30;0.30;;;;;;;8.33;93.63;100359.19;5420977;26;20475;-48
2024/04/20 06:33:59;;;;;;;0.30;0.20;;;;;;;8.64;94.54;100361.31;5452233;26;20489;-47
2024/04/20 06:36:26;;;;;;;0.30;0.20;;;;;;;8.71;94.23;100367.38;5445014;26;20595;-48
2024/04/20 06:38:52;;;;;;;0.30;0.20;;;;;;;8.60;94.00;100370.22;5439943;26;20467;-47
2024/04/20 06:41:19;;;;;;;0.30;0.20;;;;;;;8.59;92.32;100376.41;5421394;26;20467;-47
2024/04/20 06:43:45;;;;;;;0.30;0.20;;;;;;;8.73;92.83;100370.84;5437718;26;20474;-47
2024/04/20 06:46:12;;;;;;;0.30;0.20;;;;;;;8.62;93.29;100379.00;5431698;26;20474;-48
2024/04/20 06:48:39;;;;;;;0.30;0.20;;;;;;;8.93;92.06;100381.06;5433791;26;20478;-48
2024/04/20 06:51:06;;;;;;;0.30;0.20;;;;;;;8.93;90.48;100373.13;5428297;26;20542;-47
2024/04/20 06:53:33;;;;;;;0.30;0.20;;;;;;;8.80;89.00;100383.09;5407377;26;20535;-48
2024/04/20 06:55:59;;;;;;;0.30;0.20;;;;;;;8.85;90.80;100395.34;5429277;26;20465;-47
2024/04/20 06:58:27;;;;;;;0.30;0.20;;;;;;;8.65;90.66;100391.34;5435826;26;20522;-47
2024/04/20 07:00:53;;;;;;;0.30;0.20;;;;;;;8.93;90.98;100396.97;5454156;26;20462;-47
2024/04/20 07:03:20;;;;;;;0.30;0.20;;;;;;;9.02;90.10;100402.06;5416904;26;20490;-47
2024/04/20 07:05:51;;;;;;;0.30;0.20;;;;;;;8.91;88.00;100410.25;5435593;26;20477;-47
2024/04/20 07:08:18;;;;;;;0.30;0.20;;;;;;;8.68;89.18;100409.81;5420393;26;20519;-47
2024/04/20 07:11:01;;;;;;;0.30;0.20;;;;;;;9.13;87.34;100414.22;5432885;26;20587;-46
2024/04/20 07:13:31;;;;;;;0.30;0.20;;;;;;;9.35;84.41;100413.78;5451690;26;20534;-49
2024/04/20 07:15:58;;;;;;;0.30;0.20;;;;;;;9.48;82.34;100412.59;5408046;26;20473;-47
2024/04/20 07:18:26;;;;;;;0.30;0.20;;;;;;;9.46;81.22;100420.59;5453083;26;20543;-47
2024/04/20 07:20:52;;;;;;;0.30;0.20;;;;;;;9.91;81.05;100416.91;5453679;26;20535;-47
2024/04/20 07:23:19;;;;;;;0.30;0.20;;;;;;;9.81;78.92;100424.22;5452908;26;20469;-47
2024/04/20 07:25:45;;;;;;;0.30;0.20;;;;;;;9.91;77.61;100425.75;5453431;26;20513;-49
2024/04/20 07:28:15;;;;;;;0.30;0.20;;;;;;;9.99;77.52;100428.22;5452963;26;20477;-48
2024/04/20 07:30:42;;;;;;;0.30;0.20;;;;;;;9.74;77.12;100434.13;5453041;26;20506;-47
2024/04/20 07:33:09;;;;;;;0.30;0.20;;;;;;;9.56;77.52;100428.31;5446481;26;20486;-47
2024/04/20 07:35:36;;;;;;;0.30;0.20;;;;;;;9.58;76.95;100438.00;5411870;26;21160;-47
2024/04/20 07:38:03;;;;;;;0.30;0.20;;;;;;;9.47;75.58;100445.34;5453054;26;20521;-47
2024/04/20 07:40:29;;;;;;;0.30;0.20;;;;;;;9.51;75.46;100447.00;5453369;26;20526;-46
2024/04/20 07:42:56;;;;;;;0.30;0.20;;;;;;;9.73;75.74;100450.94;5405628;26;21086;-47
2024/04/20 07:45:23;;;;;;;0.30;0.20;;;;;;;9.43;80.05;100451.59;5435768;26;20567;-47
2024/04/20 07:47:49;;;;;;;0.30;0.20;;;;;;;8.86;80.18;100451.88;5438453;26;20475;-46
2024/04/20 07:50:16;;;;;;;0.30;0.20;;;;;;;8.73;79.09;100450.34;5439685;26;20556;-48
2024/04/20 07:52:43;;;;;;;0.30;0.20;;;;;;;9.00;80.10;100457.78;5423108;26;20491;-46
2024/04/20 07:55:09;;;;;;;0.30;0.20;;;;;;;9.18;78.67;100460.09;5418810;26;20471;-47
2024/04/20 07:57:36;;;;;;;0.30;0.20;;;;;;;9.37;78.39;100454.41;5445459;26;20470;-46
2024/04/20 08:00:03;;;;;;;0.30;0.20;;;;;;;9.46;74.42;100457.75;5448726;26;20576;-46
2024/04/20 08:02:32;;;;;;;0.30;0.20;;;;;;;9.69;75.08;100465.19;5438959;26;20534;-47
2024/04/20 08:04:59;;;;;;;0.30;0.20;;;;;;;9.62;74.42;100466.22;5440488;26;20594;-49
2024/04/20 08:07:25;;;;;;;0.40;0.20;;;;;;;9.79;76.22;100469.38;5441209;26;20478;-49
2024/04/20 08:09:52;;;;;;;0.30;0.20;;;;;;;10.30;75.39;100471.75;5422198;26;20811;-50
2024/04/20 08:12:18;;;;;;;0.30;0.20;;;;;;;10.14;74.31;100478.28;5446272;26;20584;-50
2024/04/20 08:14:45;;;;;;;0.30;0.20;;;;;;;10.23;74.91;100482.56;5452574;26;20470;-49
2024/04/20 08:17:12;;;;;;;0.30;0.20;;;;;;;10.01;71.92;100476.88;5451350;26;20470;-49
2024/04/20 08:19:39;;;;;;;0.30;0.20;;;;;;;9.88;72.97;100478.06;5452932;26;20477;-49
2024/04/20 08:22:05;;;;;;;0.30;0.20;;;;;;;10.00;72.77;100480.41;5452372;26;20518;-49
2024/04/20 08:24:32;;;;;;;0.30;0.20;;;;;;;10.19;72.70;100489.72;5437502;26;20522;-49
2024/04/20 08:26:59;;;;;;;0.30;0.20;;;;;;;9.86;73.92;100499.31;5452121;26;20526;-49
2024/04/20 08:29:26;;;;;;;0.33;0.20;;;;;;;9.67;72.99;100498.84;5436169;26;20475;-49
2024/04/20 08:31:52;;;;;;;0.30;0.20;;;;;;;9.55;74.43;100500.88;5437737;26;21082;-48
2024/04/20 08:34:19;;;;;;;0.30;0.20;;;;;;;9.74;73.29;100502.25;5452371;26;20474;-49
2024/04/20 08:36:45;;;;;;;0.30;0.20;;;;;;;10.04;73.56;100508.66;5452133;26;20570;-49
2024/04/20 08:39:12;;;;;;;0.30;0.20;;;;;;;9.91;73.27;100508.06;5452329;26;20470;-49
2024/04/20 08:41:47;;;;;;;0.30;0.20;;;;;;;9.92;72.61;100509.81;5452093;26;20530;-49
2024/04/20 08:44:19;;;;;;;0.30;0.20;;;;;;;9.65;72.14;100518.38;5452193;26;20812;-49
2024/04/20 08:46:51;;;;;;;0.30;0.20;;;;;;;9.79;73.40;100514.50;5444374;26;20518;-48
2024/04/20 08:49:20;;;;;;;0.30;0.20;;;;;;;9.49;73.03;100512.50;5443487;26;20873;-49
2024/04/20 08:51:48;;;;;;;0.30;0.20;;;;;;;9.90;74.27;100524.03;5421287;26;20527;-50
2024/04/20 08:54:16;;;;;;;0.30;0.20;;;;;;;9.88;71.91;100521.41;5418745;26;20482;-50
2024/04/20 08:56:43;;;;;;;0.30;0.20;;;;;;;9.77;72.65;100518.13;5451945;26;20821;-50
2024/04/20 08:59:10;;;;;;;0.30;0.20;;;;;;;9.88;71.51;100521.41;5451804;26;20829;-49
2024/04/20 09:01:38;;;;;;;0.30;0.20;;;;;;;9.68;73.05;100529.78;5447136;26;20528;-48
2024/04/20 09:04:05;;;;;;;1.60;1.50;;;;;;;9.85;74.00;100536.50;5443065;26;21096;-49
2024/04/20 09:06:33;;;;;;;0.30;0.20;;;;;;;9.80;73.55;100534.84;5432075;26;21066;-49
2024/04/20 09:09:02;;;;;;;0.30;0.20;;;;;;;9.88;73.07;100541.78;5429783;26;20474;-49
2024/04/20 09:11:31;;;;;;;0.30;0.20;;;;;;;9.78;72.11;100536.66;5449027;26;20481;-51
2024/04/20 09:14:02;;;;;;;0.30;0.20;;;;;;;9.73;77.85;100540.28;5447862;26;20498;-49
2024/04/20 09:16:29;;;;;;;0.30;0.20;;;;;;;9.72;80.95;100542.06;5444346;26;20471;-50
2024/04/20 09:19:01;;;;;;;0.30;0.20;;;;;;;9.84;81.54;100542.72;5432627;26;20522;-50
2024/04/20 09:21:28;;;;;;;0.30;0.20;;;;;;;9.83;83.26;100555.13;5428434;26;20475;-50
2024/04/20 09:24:08;;;;;;;0.30;0.20;;;;;;;9.80;82.58;100548.13;5425152;26;21073;-50
2024/04/20 09:26:35;;;;;;;0.30;0.20;;;;;;;9.96;83.31;100553.09;5438964;26;20471;-49
2024/04/20 09:29:02;;;;;;;0.30;0.20;;;;;;;10.06;83.02;100554.66;5453240;26;20530;-50
2024/04/20 09:31:29;;;;;;;0.30;0.20;;;;;;;10.18;81.53;100546.41;5452821;26;20525;-50
2024/04/20 09:33:59;;;;;;;0.30;0.20;;;;;;;10.43;78.20;100553.84;5454679;26;20534;-50
2024/04/20 09:36:26;;;;;;;0.30;0.20;;;;;;;10.27;79.76;100553.31;5447054;26;20590;-50
2024/04/20 09:38:53;;;;;;;0.30;0.20;;;;;;;10.39;79.51;100564.53;5454972;26;20469;-50
2024/04/20 09:41:25;;;;;;;0.30;0.20;;;;;;;10.59;81.90;100550.78;5454616;26;21022;-50
2024/04/20 09:43:56;;;;;;;0.30;0.20;;;;;;;10.74;80.58;100568.13;5454872;26;20587;-50
2024/04/20 09:46:32;;;;;;;0.30;0.20;;;;;;;11.05;80.58;100559.38;5441962;26;20484;-50
2024/04/20 09:49:06;;;;;;;0.30;0.20;;;;;;;11.07;79.58;100558.41;5449621;26;20478;-50
2024/04/20 09:51:43;;;;;;;0.30;0.20;;;;;;;10.79;78.26;100560.03;5422562;26;20483;-50
2024/04/20 09:54:14;;;;;;;0.30;0.20;;;;;;;10.38;76.73;100567.22;5420523;26;20483;-50
2024/04/20 09:56:42;;;;;;;0.30;0.20;;;;;;;10.59;77.38;100564.06;5454524;26;20521;-49
2024/04/20 09:59:10;;;;;;;0.30;0.20;;;;;;;10.54;76.45;100565.94;5432556;26;20463;-50
2024/04/20 10:01:37;;;;;;;0.30;0.20;;;;;;;10.66;77.19;100564.78;5434385;26;20824;-49
2024/04/20 10:04:04;;;;;;;0.30;0.20;;;;;;;10.59;78.72;100568.50;5446538;26;20485;-49
2024/04/20 10:06:31;;;;;;;0.30;0.20;;;;;;;10.20;82.38;100571.16;5454519;26;21009;-49
2024/04/20 10:08:59;;;;;;;0.30;0.20;;;;;;;9.48;87.37;100585.06;5454181;26;20514;-49
2024/04/20 10:11:27;;;;;;;0.30;0.20;;;;;;;9.50;91.77;100581.47;5442589;26;20522;-51
2024/04/20 10:13:58;;;;;;;0.30;0.20;;;;;;;9.70;94.48;100575.75;5454036;26;21017;-49
2024/04/20 10:16:25;;;;;;;0.30;0.20;;;;;;;9.65;95.63;100576.75;5454446;26;21066;-49
2024/04/20 10:18:52;;;;;;;0.30;0.20;;;;;;;9.56;94.41;100571.63;5439169;26;20526;-49
2024/04/20 10:21:19;;;;;;;0.30;0.20;;;;;;;10.01;94.83;100573.34;5454291;26;20469;-49
2024/04/20 10:23:46;;;;;;;0.30;0.20;;;;;;;10.44;93.37;100560.91;5454005;26;20477;-49
2024/04/20 10:26:12;;;;;;;0.30;0.20;;;;;;;10.76;92.29;100570.75;5454377;26;20477;-49
2024/04/20 10:28:40;;;;;;;0.30;0.20;;;;;;;10.68;87.78;100569.13;5444284;26;20475;-50
2024/04/20 10:31:06;;;;;;;0.30;0.20;;;;;;;11.09;88.11;100569.00;5439991;26;20485;-49
2024/04/20 10:33:39;;;;;;;0.30;0.20;;;;;;;10.75;82.67;100556.56;5429735;26;20473;-49
2024/04/20 10:36:11;;;;;;;0.30;0.20;;;;;;;10.21;85.24;100572.94;5430553;26;21006;-49
2024/04/20 10:38:39;;;;;;;0.30;0.20;;;;;;;10.35;85.92;100556.66;5454586;26;20493;-48
2024/04/20 10:41:13;;;;;;;0.30;0.20;;;;;;;10.82;85.82;100562.59;5454459;26;20489;-48
2024/04/20 10:43:40;;;;;;;0.30;0.20;;;;;;;11.21;83.60;100566.03;5434074;26;20494;-50
2024/04/20 10:46:09;;;;;;;0.30;0.20;;;;;;;10.96;78.11;100564.03;5445939;26;20526;-50
2024/04/20 10:48:40;;;;;;;0.30;0.20;;;;;;;11.28;78.68;100564.97;5454181;26;20524;-50
2024/04/20 10:51:11;;;;;;;0.30;0.20;;;;;;;11.35;73.47;100563.84;5421853;26;21026;-49
2024/04/20 10:53:39;;;;;;;0.30;0.20;;;;;;;11.18;74.06;100569.63;5418176;26;20531;-50
2024/04/20 10:56:08;;;;;;;0.30;0.20;;;;;;;11.61;77.67;100559.59;5435810;26;20522;-49
2024/04/20 10:58:42;;;;;;;0.30;0.20;;;;;;;11.71;73.98;100561.97;5450268;26;20521;-50
2024/04/20 11:01:09;;;;;;;0.30;0.20;;;;;;;12.00;74.68;100565.59;5429928;26;20491;-50
2024/04/20 11:03:36;;;;;;;0.30;0.20;;;;;;;12.18;74.42;100570.34;5438620;26;20534;-49
2024/04/20 11:06:04;;;;;;;0.30;0.20;;;;;;;12.64;71.62;100560.91;5424884;26;20471;-50
2024/04/20 11:08:30;;;;;;;0.30;0.20;;;;;;;12.46;69.96;100575.69;5439829;26;20534;-50
2024/04/20 11:11:00;;;;;;;0.30;0.20;;;;;;;12.34;69.59;100563.66;5442188;26;20870;-50
2024/04/20 11:13:27;;;;;;;0.30;0.20;;;;;;;12.32;69.51;100564.59;5431291;26;20582;-51
2024/04/20 11:15:54;;;;;;;0.30;0.20;;;;;;;12.22;69.20;100561.38;5449729;26;20478;-50
2024/04/20 11:18:20;;;;;;;0.30;0.20;;;;;;;12.40;65.69;100563.44;5431969;26;20471;-51
2024/04/20 11:20:47;;;;;;;0.30;0.20;;;;;;;12.37;70.21;100566.22;5442237;26;20469;-50
2024/04/20 11:23:17;;;;;;;0.30;0.20;;;;;;;11.86;74.17;100580.19;5416223;26;20482;-50
2024/04/20 11:25:52;;;;;;;0.30;0.20;;;;;;;11.48;76.60;100573.25;5429711;26;21074;-50
2024/04/20 11:28:20;;;;;;;0.30;0.20;;;;;;;11.76;75.85;100575.13;5453087;26;20477;-51
2024/04/20 11:30:46;;;;;;;0.30;0.20;;;;;;;11.86;72.69;100582.84;5453296;26;20446;-51
2024/04/20 11:33:13;;;;;;;0.30;0.20;;;;;;;11.91;72.84;100582.72;5450937;26;20490;-50